createdAt,value
2023-03-26T00:01:36.499Z,3.75
2023-03-26T00:04:06.807Z,3.35
2023-03-26T00:06:39.394Z,3.28
2023-03-26T00:09:10.099Z,3.30
2023-03-26T00:11:37.361Z,3.05
2023-03-26T00:14:05.515Z,3.28
2023-03-26T00:16:33.887Z,3.40
2023-03-26T00:19:02.005Z,3.58
2023-03-26T00:21:30.783Z,3.35
2023-03-26T00:24:04.693Z,2.90
2023-03-26T00:26:34.315Z,3.53
2023-03-26T00:29:03.523Z,3.05
2023-03-26T00:31:31.589Z,3.08
2023-03-26T00:33:59.452Z,2.85
2023-03-26T00:36:26.915Z,3.17
2023-03-26T00:38:55.169Z,3.10
2023-03-26T00:41:25.978Z,3.22
2023-03-26T00:43:56.956Z,3.35
2023-03-26T00:46:26.153Z,3.20
2023-03-26T00:48:53.783Z,3.05
2023-03-26T00:51:21.746Z,3.28
2023-03-26T00:53:50.511Z,3.00
2023-03-26T00:56:19.031Z,3.10
2023-03-26T00:58:47.999Z,3.67
2023-03-26T01:01:20.424Z,2.90
2023-03-26T01:04:01.256Z,3.33
2023-03-26T01:06:37.780Z,3.60
2023-03-26T01:09:34.972Z,2.95
2023-03-26T01:12:08.023Z,3.40
2023-03-26T01:14:38.016Z,3.05
2023-03-26T01:17:07.637Z,3.40
2023-03-26T01:19:44.833Z,3.50
2023-03-26T01:22:20.321Z,3.10
2023-03-26T01:24:53.286Z,3.10
2023-03-26T01:27:42.815Z,3.30
2023-03-26T01:30:35.080Z,3.05
2023-03-26T01:33:20.333Z,2.83
2023-03-26T01:36:10.152Z,3.38
2023-03-26T01:39:02.439Z,3.30
2023-03-26T01:41:46.873Z,3.33
2023-03-26T01:44:26.279Z,2.80
2023-03-26T01:46:54.483Z,3.20
2023-03-26T01:49:21.747Z,3.10
2023-03-26T01:51:50.618Z,2.90
2023-03-26T01:54:23.030Z,3.88
2023-03-26T01:57:29.503Z,3.30
2023-03-26T02:00:20.873Z,3.37
2023-03-26T02:03:26.409Z,2.90
2023-03-26T02:06:11.305Z,3.30
2023-03-26T02:09:06.449Z,3.47
2023-03-26T02:11:36.091Z,3.40
2023-03-26T02:14:06.128Z,3.30
2023-03-26T02:16:33.660Z,3.20
2023-03-26T02:19:01.022Z,3.58
2023-03-26T02:21:28.873Z,3.42
2023-03-26T02:24:02.869Z,3.20
2023-03-26T02:26:35.984Z,3.38
2023-03-26T02:29:10.024Z,3.10
2023-03-26T02:31:38.960Z,3.10
2023-03-26T02:34:06.346Z,3.17
2023-03-26T02:36:36.527Z,3.00
2023-03-26T02:39:05.482Z,3.20
2023-03-26T02:41:37.863Z,3.15
2023-03-26T02:44:08.995Z,3.30
2023-03-26T02:47:14.111Z,3.22
2023-03-26T02:49:53.147Z,3.42
2023-03-26T02:52:30.017Z,3.47
2023-03-26T02:54:58.791Z,3.22
2023-03-26T02:57:26.755Z,3.13
2023-03-26T03:00:14.048Z,4.07
2023-03-26T03:02:50.520Z,3.80
2023-03-26T03:05:43.165Z,3.53
2023-03-26T03:08:26.432Z,3.60
2023-03-26T03:11:17.676Z,3.55
2023-03-26T03:13:48.225Z,3.80
2023-03-26T03:19:10.639Z,3.42
2023-03-26T03:21:40.256Z,3.83
2023-03-26T03:24:09.403Z,3.30
2023-03-26T03:26:42.282Z,3.40
2023-03-26T03:29:28.327Z,3.28
2023-03-26T03:31:57.081Z,3.55
2023-03-26T03:34:44.363Z,3.35
2023-03-26T03:37:11.799Z,3.05
2023-03-26T03:39:49.006Z,3.63
2023-03-26T03:42:19.560Z,3.03
2023-03-26T03:44:49.220Z,3.22
2023-03-26T03:47:34.760Z,3.20
2023-03-26T03:50:02.081Z,3.17
2023-03-26T03:52:31.074Z,2.95
2023-03-26T03:55:00.466Z,3.30
2023-03-26T03:57:40.411Z,3.60
2023-03-26T04:00:13.057Z,3.78
2023-03-26T04:02:43.051Z,3.45
2023-03-26T04:05:11.900Z,3.22
2023-03-26T04:07:45.266Z,3.58
2023-03-26T04:10:18.634Z,3.63
2023-03-26T04:13:08.550Z,3.30
2023-03-26T04:16:05.434Z,3.28
2023-03-26T04:18:32.755Z,3.40
2023-03-26T04:21:07.724Z,3.50
2023-03-26T04:23:35.694Z,3.20
2023-03-26T04:29:06.521Z,3.45
2023-03-26T04:31:36.248Z,3.75
2023-03-26T04:34:14.136Z,3.30
2023-03-26T04:36:55.358Z,3.72
2023-03-26T04:39:29.337Z,3.30
2023-03-26T04:42:15.383Z,3.22
2023-03-26T04:44:59.718Z,3.40
2023-03-26T04:47:28.996Z,3.25
2023-03-26T04:49:56.467Z,3.30
2023-03-26T04:52:24.068Z,3.33
2023-03-26T04:56:02.046Z,4.00
2023-03-26T04:58:50.439Z,3.40
2023-03-26T05:01:17.717Z,3.63
2023-03-26T05:03:46.481Z,3.65
2023-03-26T05:06:17.806Z,3.50
2023-03-26T05:08:45.283Z,3.88
2023-03-26T05:11:21.571Z,4.20
2023-03-26T05:13:51.147Z,3.63
2023-03-26T05:16:18.964Z,4.03
2023-03-26T05:19:07.007Z,3.50
2023-03-26T05:21:35.250Z,3.40
2023-03-26T05:24:02.831Z,3.75
2023-03-26T05:26:30.174Z,4.07
2023-03-26T05:28:57.693Z,4.20
2023-03-26T05:31:33.218Z,3.83
2023-03-26T05:34:01.987Z,3.70
2023-03-26T05:36:29.738Z,3.80
2023-03-26T05:39:15.192Z,4.20
2023-03-26T05:42:00.664Z,4.45
2023-03-26T05:44:37.837Z,4.40
2023-03-26T05:47:15.124Z,4.07
2023-03-26T05:49:42.361Z,3.58
2023-03-26T05:52:09.457Z,4.03
2023-03-26T05:54:56.671Z,3.92
2023-03-26T05:57:42.716Z,3.80
2023-03-26T06:00:28.683Z,4.05
2023-03-26T06:02:57.282Z,4.00
2023-03-26T06:05:37.265Z,3.78
2023-03-26T06:08:16.580Z,3.90
2023-03-26T06:10:53.729Z,3.83
2023-03-26T06:13:22.040Z,3.72
2023-03-26T06:15:50.732Z,4.05
2023-03-26T06:18:26.518Z,4.35
2023-03-26T06:21:29.320Z,3.67
2023-03-26T06:24:01.903Z,4.40
2023-03-26T06:26:58.126Z,3.83
2023-03-26T06:29:44.395Z,3.75
2023-03-26T06:32:20.591Z,4.03
2023-03-26T06:34:58.739Z,4.05
2023-03-26T06:37:25.868Z,3.70
2023-03-26T06:39:58.202Z,4.13
2023-03-26T06:43:10.125Z,3.85
2023-03-26T06:45:53.327Z,3.80
2023-03-26T06:48:39.992Z,3.90
2023-03-26T06:51:12.853Z,4.30
2023-03-26T06:54:02.642Z,4.28
2023-03-26T06:56:44.921Z,4.82
2023-03-26T06:59:38.479Z,4.28
2023-03-26T07:02:24.664Z,4.70
2023-03-26T07:05:10.190Z,4.38
2023-03-26T07:07:55.893Z,4.60
2023-03-26T07:10:42.018Z,4.68
2023-03-26T07:13:17.167Z,4.43
2023-03-26T07:16:20.140Z,4.53
2023-03-26T07:19:13.154Z,4.55
2023-03-26T07:21:42.513Z,4.93
2023-03-26T07:24:24.011Z,3.95
2023-03-26T07:27:36.958Z,4.57
2023-03-26T07:30:33.190Z,4.32
2023-03-26T07:33:37.880Z,4.00
2023-03-26T07:36:45.390Z,4.38
2023-03-26T07:40:05.862Z,4.32
2023-03-26T07:45:58.590Z,4.72
2023-03-26T07:48:49.974Z,4.20
2023-03-26T07:51:31.857Z,4.82
2023-03-26T07:54:25.855Z,4.18
2023-03-26T07:57:37.161Z,4.30
2023-03-26T08:00:31.206Z,4.53
2023-03-26T08:03:04.643Z,4.18
2023-03-26T08:06:15.921Z,4.10
2023-03-26T08:09:30.949Z,3.92
2023-03-26T08:13:00.711Z,4.35
2023-03-26T08:16:08.873Z,4.00
2023-03-26T08:19:06.066Z,4.32
2023-03-26T08:21:55.964Z,3.63
2023-03-26T08:24:34.445Z,3.90
2023-03-26T08:27:39.998Z,4.25
2023-03-26T08:30:18.158Z,4.00
2023-03-26T08:33:22.018Z,4.35
2023-03-26T08:35:49.903Z,4.07
2023-03-26T08:38:20.012Z,4.63
2023-03-26T08:41:11.306Z,3.80
2023-03-26T08:44:28.421Z,4.15
2023-03-26T08:47:27.770Z,4.50
2023-03-26T08:50:41.533Z,4.07
2023-03-26T08:53:23.694Z,4.30
2023-03-26T08:56:41.482Z,3.95
2023-03-26T08:59:42.224Z,4.40
2023-03-26T09:02:40.320Z,3.90
2023-03-26T09:05:31.709Z,4.57
2023-03-26T09:08:31.231Z,4.45
2023-03-26T09:11:36.418Z,3.70
2023-03-26T09:14:09.190Z,4.18
2023-03-26T09:17:19.200Z,3.58
2023-03-26T09:20:41.427Z,3.97
2023-03-26T09:23:43.617Z,4.30
2023-03-26T09:26:42.965Z,3.97
2023-03-26T09:29:24.882Z,3.60
2023-03-26T09:32:28.591Z,3.45
2023-03-26T09:35:13.097Z,4.43
2023-03-26T09:37:56.406Z,3.90
2023-03-26T09:40:53.296Z,3.70
2023-03-26T09:43:38.392Z,3.70
2023-03-26T09:46:17.864Z,4.10
2023-03-26T09:48:54.214Z,3.95
2023-03-26T09:51:33.935Z,4.20
2023-03-26T09:54:34.937Z,3.70
2023-03-26T09:57:43.527Z,4.00
2023-03-26T10:00:45.689Z,3.40
2023-03-26T10:04:18.024Z,3.55
2023-03-26T10:07:05.132Z,3.17
2023-03-26T10:10:13.166Z,3.55
2023-03-26T10:12:44.288Z,3.65
2023-03-26T10:15:25.094Z,3.45
2023-03-26T10:18:33.100Z,3.40
2023-03-26T10:21:37.883Z,3.20
2023-03-26T10:24:23.829Z,2.80
2023-03-26T10:27:28.339Z,3.33
2023-03-26T10:30:21.516Z,3.63
2023-03-26T10:33:45.669Z,3.05
2023-03-26T10:36:34.979Z,3.00
2023-03-26T10:39:38.105Z,3.03
2023-03-26T10:42:37.028Z,3.47
2023-03-26T10:45:27.233Z,3.53
2023-03-26T10:48:46.811Z,3.15
2023-03-26T10:51:53.490Z,3.58
2023-03-26T10:54:56.972Z,3.20
2023-03-26T10:58:01.011Z,3.30
2023-03-26T11:00:29.159Z,3.33
2023-03-26T11:03:02.453Z,3.88
2023-03-26T11:05:54.972Z,3.15
2023-03-26T11:08:32.882Z,3.35
2023-03-26T11:11:15.025Z,3.28
2023-03-26T11:14:03.452Z,2.70
2023-03-26T11:16:57.054Z,3.20
2023-03-26T11:19:56.297Z,2.72
2023-03-26T11:22:42.615Z,3.53
2023-03-26T11:28:33.964Z,3.05
2023-03-26T11:31:25.672Z,3.40
2023-03-26T11:33:58.903Z,3.38
2023-03-26T11:36:33.574Z,2.90
2023-03-26T11:39:05.618Z,3.35
2023-03-26T11:41:33.904Z,3.33
2023-03-26T11:44:39.696Z,3.30
2023-03-26T11:47:12.172Z,3.00
2023-03-26T11:49:41.347Z,3.42
2023-03-26T11:52:12.288Z,3.03
2023-03-26T11:54:39.531Z,3.78
2023-03-26T11:57:14.672Z,3.63
2023-03-26T11:59:57.160Z,3.42
2023-03-26T12:02:29.335Z,3.20
2023-03-26T12:05:34.183Z,3.72
2023-03-26T12:08:17.205Z,3.20
2023-03-26T12:10:44.972Z,3.63
2023-03-26T12:13:21.635Z,3.58
2023-03-26T12:15:49.561Z,3.63
2023-03-26T12:18:28.091Z,3.22
2023-03-26T12:21:17.122Z,3.55
2023-03-26T12:24:01.151Z,3.70
2023-03-26T12:26:48.941Z,3.33
2023-03-26T12:29:19.054Z,3.58
2023-03-26T12:32:09.266Z,3.35
2023-03-26T12:34:39.371Z,3.25
2023-03-26T12:37:35.441Z,3.33
2023-03-26T12:40:27.277Z,2.63
2023-03-26T12:44:52.815Z,3.00
2023-03-26T12:47:55.290Z,4.38
2023-03-26T12:48:43.204Z,3.40
2023-03-26T12:51:46.405Z,3.13
2023-03-26T12:54:33.138Z,3.10
2023-03-26T12:57:26.433Z,3.20
2023-03-26T13:00:20.128Z,3.47
2023-03-26T13:03:02.177Z,3.22
2023-03-26T13:06:30.097Z,3.10
2023-03-26T13:09:15.718Z,3.35
2023-03-26T13:12:40.482Z,3.27
2023-03-26T13:15:17.683Z,3.40
2023-03-26T13:17:56.826Z,2.92
2023-03-26T13:20:54.958Z,3.00
2023-03-26T13:23:32.085Z,2.72
2023-03-26T13:26:34.795Z,3.00
2023-03-26T13:29:30.967Z,3.10
2023-03-26T13:32:09.380Z,3.33
2023-03-26T13:35:02.992Z,3.00
2023-03-26T13:37:39.232Z,2.90
2023-03-26T13:40:25.475Z,2.53
2023-03-26T13:43:27.770Z,3.00
2023-03-26T13:46:11.561Z,2.58
2023-03-26T13:48:54.644Z,3.00
2023-03-26T13:51:41.027Z,2.90
2023-03-26T13:54:27.000Z,3.10
2023-03-26T13:57:17.287Z,3.15
2023-03-26T13:59:46.810Z,3.30
2023-03-26T14:02:28.840Z,3.05
2023-03-26T14:05:08.655Z,2.65
2023-03-26T14:07:52.484Z,2.70
2023-03-26T14:10:26.196Z,3.20
2023-03-26T14:12:56.464Z,3.00
2023-03-26T14:15:34.537Z,2.65
2023-03-26T14:18:29.350Z,3.15
2023-03-26T14:21:36.597Z,2.58
2023-03-26T14:24:20.170Z,2.58
2023-03-26T14:27:28.482Z,3.00
2023-03-26T14:30:40.131Z,2.88
2023-03-26T14:33:34.070Z,2.72
2023-03-26T14:36:47.623Z,2.72
2023-03-26T14:40:25.250Z,2.60
2023-03-26T14:43:01.684Z,2.80
2023-03-26T14:45:48.741Z,2.65
2023-03-26T14:48:37.246Z,2.55
2023-03-26T14:51:38.358Z,2.40
2023-03-26T14:54:14.112Z,2.28
2023-03-26T14:57:33.214Z,2.20
2023-03-26T15:03:48.900Z,2.70
2023-03-26T15:06:45.132Z,2.47
2023-03-26T15:09:49.350Z,2.63
2023-03-26T15:12:53.969Z,2.55
2023-03-26T15:16:17.846Z,2.50
2023-03-26T15:19:18.889Z,2.90
2023-03-26T15:22:18.752Z,2.83
2023-03-26T15:25:01.395Z,2.65
2023-03-26T15:28:08.261Z,2.42
2023-03-26T15:31:06.577Z,2.40
2023-03-26T15:33:52.907Z,2.72
2023-03-26T15:36:35.014Z,2.80
2023-03-26T15:39:19.813Z,2.45
2023-03-26T15:42:12.815Z,2.80
2023-03-26T15:45:22.447Z,2.90
2023-03-26T15:48:12.945Z,2.97
2023-03-26T15:51:46.996Z,2.80
2023-03-26T15:54:14.613Z,2.58
2023-03-26T15:57:16.752Z,2.40
2023-03-26T16:00:15.414Z,2.75
2023-03-26T16:02:53.693Z,2.78
2023-03-26T16:05:32.153Z,2.67
2023-03-26T16:08:16.825Z,3.00
2023-03-26T16:11:00.327Z,2.80
2023-03-26T16:13:37.981Z,2.83
2023-03-26T16:16:06.809Z,2.80
2023-03-26T16:18:37.089Z,2.40
2023-03-26T16:21:32.857Z,2.33
2023-03-26T16:24:02.969Z,2.90
2023-03-26T16:26:51.372Z,2.40
2023-03-26T16:29:26.077Z,2.97
2023-03-26T16:32:28.635Z,3.05
2023-03-26T16:35:16.616Z,2.90
2023-03-26T16:37:50.437Z,2.50
2023-03-26T16:40:17.625Z,2.47
2023-03-26T16:43:46.800Z,2.45
2023-03-26T16:46:47.916Z,2.95
2023-03-26T16:50:08.139Z,2.40
2023-03-26T16:52:58.815Z,2.70
2023-03-26T16:55:36.730Z,2.78
2023-03-26T16:58:55.950Z,2.67
2023-03-26T17:01:48.268Z,3.00
2023-03-26T17:04:26.115Z,2.95
2023-03-26T17:07:14.072Z,3.33
2023-03-26T17:10:05.817Z,3.35
2023-03-26T17:12:51.558Z,2.63
2023-03-26T17:15:41.196Z,2.90
2023-03-26T17:18:50.638Z,3.03
2023-03-26T17:21:45.724Z,3.35
2023-03-26T17:24:43.135Z,3.17
2023-03-26T17:28:08.153Z,3.22
2023-03-26T17:31:00.062Z,3.10
2023-03-26T17:33:28.477Z,3.10
2023-03-26T17:36:20.107Z,3.15
2023-03-26T17:38:47.089Z,3.53
2023-03-26T17:41:52.081Z,2.95
2023-03-26T17:44:56.334Z,2.90
2023-03-26T17:47:26.288Z,3.20
2023-03-26T17:50:16.189Z,2.92
2023-03-26T17:52:56.802Z,3.13
2023-03-26T17:55:35.013Z,3.03
2023-03-26T17:58:07.880Z,2.90
2023-03-26T18:00:50.525Z,3.33
2023-03-26T18:03:23.740Z,2.90
2023-03-26T18:06:04.417Z,2.70
2023-03-26T18:08:45.942Z,3.03
2023-03-26T18:11:53.268Z,2.83
2023-03-26T18:14:47.319Z,3.22
2023-03-26T18:17:14.376Z,4.15
2023-03-26T18:19:52.812Z,3.22
2023-03-26T18:22:25.636Z,3.42
2023-03-26T18:24:59.784Z,3.00
2023-03-26T18:27:36.629Z,2.80
2023-03-26T18:30:23.431Z,3.05
2023-03-26T18:33:01.443Z,2.90
2023-03-26T18:35:46.197Z,2.90
2023-03-26T18:38:34.951Z,2.80
2023-03-26T18:41:05.989Z,2.72
2023-03-26T18:43:35.624Z,2.90
2023-03-26T18:46:13.741Z,3.08
2023-03-26T18:48:41.267Z,3.63
2023-03-26T18:51:08.870Z,2.80
2023-03-26T18:53:59.274Z,2.75
2023-03-26T18:56:42.381Z,3.30
2023-03-26T18:59:31.899Z,2.97
2023-03-26T19:02:13.961Z,2.88
2023-03-26T19:04:46.123Z,3.25
2023-03-26T19:07:25.805Z,3.40
2023-03-26T19:09:56.241Z,2.85
2023-03-26T19:12:33.159Z,3.47
2023-03-26T19:15:14.547Z,3.17
2023-03-26T19:17:55.843Z,2.92
2023-03-26T19:20:36.958Z,2.85
2023-03-26T19:23:05.115Z,2.97
2023-03-26T19:25:40.904Z,2.95
2023-03-26T19:28:42.324Z,2.67
2023-03-26T19:31:20.717Z,3.03
2023-03-26T19:34:31.695Z,2.97
2023-03-26T19:37:28.559Z,3.10
2023-03-26T19:40:19.378Z,3.08
2023-03-26T19:42:48.658Z,2.80
2023-03-26T19:45:22.872Z,3.40
2023-03-26T19:48:03.566Z,2.95
2023-03-26T19:50:46.060Z,3.30
2023-03-26T19:53:22.463Z,2.85
2023-03-26T19:56:15.138Z,3.17
2023-03-26T19:58:42.882Z,2.83
2023-03-26T20:01:24.174Z,3.00
2023-03-26T20:03:55.920Z,3.03
2023-03-26T20:06:33.956Z,3.25
2023-03-26T20:09:05.536Z,3.30
2023-03-26T20:11:37.842Z,2.63
2023-03-26T20:14:17.938Z,2.80
2023-03-26T20:16:46.044Z,3.00
2023-03-26T20:19:14.997Z,3.20
2023-03-26T20:21:44.332Z,3.60
2023-03-26T20:24:16.514Z,3.90
2023-03-26T20:26:45.548Z,3.33
2023-03-26T20:29:14.071Z,3.67
2023-03-26T20:31:42.254Z,2.95
2023-03-26T20:34:35.361Z,3.17
2023-03-26T20:37:02.723Z,3.33
2023-03-26T20:39:29.881Z,2.92
2023-03-26T20:41:57.024Z,5.05
2023-03-26T20:44:26.832Z,3.63
2023-03-26T20:46:56.392Z,3.40
2023-03-26T20:49:23.667Z,3.67
2023-03-26T20:51:50.881Z,3.45
2023-03-26T20:54:25.468Z,3.00
2023-03-26T20:56:54.206Z,3.08
2023-03-26T20:59:26.175Z,3.10
2023-03-26T21:01:56.807Z,3.55
2023-03-26T21:04:24.991Z,3.10
2023-03-26T21:06:55.311Z,3.20
2023-03-26T21:09:34.016Z,3.15
2023-03-26T21:12:16.945Z,2.90
2023-03-26T21:14:44.425Z,2.78
2023-03-26T21:17:22.096Z,2.70
2023-03-26T21:19:50.025Z,3.20
2023-03-26T21:22:36.521Z,2.95
2023-03-26T21:25:24.235Z,3.00
2023-03-26T21:28:31.995Z,2.92
2023-03-26T21:31:09.425Z,2.70
2023-03-26T21:33:36.560Z,3.03
2023-03-26T21:36:04.443Z,3.10
2023-03-26T21:38:33.133Z,3.28
2023-03-26T21:41:03.211Z,3.47
2023-03-26T21:43:31.081Z,3.95
2023-03-26T21:45:59.214Z,2.97
2023-03-26T21:48:28.746Z,2.80
2023-03-26T21:51:02.254Z,3.15
2023-03-26T21:53:30.240Z,2.72
2023-03-26T21:56:18.294Z,3.30
2023-03-26T21:59:14.841Z,2.97
2023-03-26T22:01:48.062Z,2.83
2023-03-26T22:04:50.022Z,2.83
2023-03-26T22:07:54.423Z,2.40
2023-03-26T22:10:22.094Z,3.20
2023-03-26T22:12:49.851Z,2.60
2023-03-26T22:15:19.225Z,3.15
2023-03-26T22:17:54.149Z,2.80
2023-03-26T22:20:25.016Z,3.30
2023-03-26T22:22:53.304Z,3.08
2023-03-26T22:25:22.221Z,3.30
2023-03-26T22:27:51.056Z,3.20
2023-03-26T22:30:20.644Z,3.00
2023-03-26T22:32:48.518Z,2.65
2023-03-26T22:35:16.165Z,3.17
2023-03-26T22:37:43.207Z,2.85
2023-03-26T22:40:13.252Z,2.55
2023-03-26T22:42:41.393Z,2.55
2023-03-26T22:45:09.988Z,3.30
2023-03-26T22:47:38.222Z,2.90
2023-03-26T22:50:07.593Z,3.28
2023-03-26T22:52:36.522Z,3.03
2023-03-26T22:55:05.304Z,3.10
2023-03-26T22:57:32.741Z,3.63
2023-03-26T23:00:13.260Z,3.13
2023-03-26T23:02:44.921Z,3.13
2023-03-26T23:05:13.597Z,2.90
2023-03-26T23:07:42.512Z,2.63
2023-03-26T23:10:11.191Z,3.10
2023-03-26T23:12:40.183Z,3.25
2023-03-26T23:15:08.919Z,3.00
2023-03-26T23:17:37.646Z,3.20
2023-03-26T23:20:16.482Z,2.90
2023-03-26T23:22:44.017Z,3.28
2023-03-26T23:25:11.931Z,2.65
2023-03-26T23:27:41.153Z,2.45
2023-03-26T23:30:10.712Z,2.80
2023-03-26T23:32:38.333Z,2.78
2023-03-26T23:35:06.376Z,2.58
2023-03-26T23:37:35.031Z,2.67
2023-03-26T23:40:07.378Z,2.72
2023-03-26T23:42:34.514Z,2.90
2023-03-26T23:45:01.956Z,3.15
2023-03-26T23:47:34.367Z,2.65
2023-03-26T23:50:04.781Z,2.72
2023-03-26T23:52:31.777Z,2.88
2023-03-26T23:55:02.100Z,2.72
2023-03-26T23:57:30.551Z,3.00
2023-03-26T23:59:58.415Z,2.63
